Wiscasset Airport

About
Name: Wiscasset Airport
Identifier:  ISS/KIWI
Local Time:  20. Aug 09:40 EDT
Location
Flights per Day
0 flights
Distance: 459km (285mi)
Punctuality
0% (0 flights per day delayed)
Delay Average: 10 minutes
Current Weather
 24 C (Humidity: 64%)
  0kt from variable
  16km (10 mi.)
 
 METAR KIWI 201253Z AUTO VRB03KT 10SM CLR 24/17 A3006 RMK AO2 SLP179 T02390172

Current Flights

Departures
Number Departure To Airline
Arrivals
Number Arrival From Airline

Current Delays

Departures
N/A
Arrivals
N/A

Destinations

Top Destinations
Airport Flights
per week
Seats
per week
  Burlington (BTV) 0 - 0 0
  Winston-Salem (INT) 0 - 0 0
  Sanford (SFM) 0 - 0 0
  Lake Placid (LKP) 0 - 0 0
  Farmingdale (FRG) 0 - 0 0
  White Plains (HPN) 0 - 0 0
  Nantucket (ACK) 0 - 0 0
  Bangor (BGR) 0 - 0 0
  New York (JFK) 0 - 0 0
  Boston (BOS) 0 - 0 0
  Nashua (ASH) 0 - 0 0
  Augusta (AUG) 0 - 0 0
  Portsmouth (PSM) 0 - 0 0

Airlines & Planes

Top Airlines
Airline Flights
per Day
Seats
per Day
  Nolinor Aviation 0 -
  Centennial Airlines 0 -
  Flybe Nordic 0 -
Nordwind Airlines 0 -
  National Airlines 0 -
Jet Charter Inc ( Franklin Lakes Nj ) 0 -
Top Plane Types
Model Flights Seats
Pilatus PC-12 0.2/day - 0
Cessna C172 0.2/day - 0
Piper PA-46-350P Malibu Mirage 0.0/day - 0
Cessna C182 0.0/day - 0
Piper PA-31-350 0.0/day - 0